Time;durP1;ratioP1;P1;durP2;ratioP2;P2;SDS_P1;SDS_P2;PMS_P1;PMS_P2;Temp;Humidity;BMP_temperature;BMP_pressure;BME280_temperature;BME280_humidity;BME280_pressure;Samples;Min_cycle;Max_cycle;Signal;HPM_P1;HPM_P2
2021/10/28 00:12:27;;;;;;;17.15;11.23;;;13.30;99.90;;;;;;4962250;28;20056;-79
2021/10/28 00:15:05;;;;;;;26.13;13.35;;;13.30;99.90;;;;;;5013790;28;20103;-80
2021/10/28 00:18:08;;;;;;;25.27;13.32;;;13.30;99.90;;;;;;5013305;28;20048;-79
2021/10/28 00:20:23;;;;;;;27.48;13.40;;;13.30;99.90;;;;;;5010026;28;20108;-79
2021/10/28 00:22:48;;;;;;;23.52;12.90;;;13.30;99.90;;;;;;5013689;28;20038;-79
2021/10/28 00:25:14;;;;;;;18.95;12.57;;;13.30;99.90;;;;;;5013344;28;20108;-79
2021/10/28 00:27:40;;;;;;;23.20;12.18;;;13.30;99.90;;;;;;5013489;28;20100;-80
2021/10/28 00:30:06;;;;;;;24.45;12.55;;;13.30;99.90;;;;;;5012852;28;20380;-81
2021/10/28 00:32:31;;;;;;;28.00;12.93;;;13.30;99.90;;;;;;5013605;28;20554;-80
2021/10/28 00:34:57;;;;;;;17.17;10.70;;;13.30;99.90;;;;;;5015601;28;20041;-78
2021/10/28 00:37:23;;;;;;;20.27;11.70;;;13.30;99.90;;;;;;5014092;28;20085;-81
2021/10/28 00:39:48;;;;;;;18.73;11.63;;;13.30;99.90;;;;;;5013805;28;20064;-79
2021/10/28 00:42:15;;;;;;;21.23;11.98;;;13.30;99.90;;;;;;4995452;28;20438;-80
2021/10/28 00:44:44;;;;;;;20.70;12.18;;;13.30;99.90;;;;;;5013275;28;20044;-81
2021/10/28 00:47:09;;;;;;;23.25;11.48;;;13.40;99.90;;;;;;5013135;28;20068;-78
2021/10/28 00:49:35;;;;;;;16.40;11.05;;;13.40;99.90;;;;;;5013303;28;20065;-80
2021/10/28 00:52:01;;;;;;;19.67;11.68;;;13.40;99.90;;;;;;5016096;28;20026;-81
2021/10/28 00:54:28;;;;;;;21.90;12.90;;;13.30;99.90;;;;;;5013046;28;20048;-80
2021/10/28 00:56:54;;;;;;;19.10;11.68;;;13.40;99.90;;;;;;5013163;28;20526;-76
2021/10/28 00:59:20;;;;;;;15.80;11.15;;;13.40;99.90;;;;;;5013200;28;20025;-80
2021/10/28 01:01:46;;;;;;;22.27;11.95;;;13.30;99.90;;;;;;5013158;28;20095;-79
2021/10/28 01:04:12;;;;;;;19.60;11.88;;;13.40;99.90;;;;;;5012697;28;20042;-80
2021/10/28 01:06:39;;;;;;;21.42;11.65;;;13.30;99.90;;;;;;5012472;28;20670;-77
2021/10/28 01:09:06;;;;;;;21.58;12.45;;;13.40;99.90;;;;;;5011043;28;20065;-77
2021/10/28 01:11:32;;;;;;;20.88;10.90;;;13.40;99.90;;;;;;5016407;28;20026;-79
2021/10/28 01:13:59;;;;;;;17.98;11.75;;;13.40;99.90;;;;;;5012849;28;20041;-79
2021/10/28 01:16:26;;;;;;;24.55;11.60;;;13.40;99.90;;;;;;5012858;28;20508;-80
2021/10/28 01:18:53;;;;;;;22.77;12.02;;;13.40;99.90;;;;;;5012695;28;20145;-80
2021/10/28 01:21:20;;;;;;;20.60;12.15;;;13.50;99.90;;;;;;5012231;28;20046;-80
2021/10/28 01:23:46;;;;;;;23.00;13.07;;;13.40;99.90;;;;;;5012500;28;20045;-80
2021/10/28 01:26:13;;;;;;;21.02;12.57;;;13.40;99.90;;;;;;5016223;28;20105;-79
2021/10/28 01:29:01;;;;;;;19.95;12.82;;;13.40;99.90;;;;;;5011713;28;20390;-79
2021/10/28 01:31:29;;;;;;;20.15;12.55;;;13.30;99.90;;;;;;5012964;28;20026;-79
2021/10/28 01:33:56;;;;;;;19.65;12.70;;;13.30;99.90;;;;;;5012834;28;20057;-80
2021/10/28 01:36:24;;;;;;;19.05;11.73;;;13.30;99.90;;;;;;5012494;28;20033;-80
2021/10/28 01:38:50;;;;;;;25.92;13.35;;;13.30;99.90;;;;;;5012453;28;20060;-78
2021/10/28 01:41:16;;;;;;;22.85;13.77;;;13.30;99.90;;;;;;5012194;28;20084;-80
2021/10/28 01:43:42;;;;;;;23.77;12.95;;;13.40;99.90;;;;;;5012653;28;20665;-79
2021/10/28 01:46:09;;;;;;;21.67;13.15;;;13.30;99.90;;;;;;5012094;28;20034;-79
2021/10/28 01:48:40;;;;;;;23.52;13.57;;;13.30;99.90;;;;;;5012607;28;20034;-78
2021/10/28 01:51:07;;;;;;;21.85;12.80;;;13.30;99.90;;;;;;5012058;28;20080;-79
2021/10/28 01:53:36;;;;;;;21.50;13.02;;;13.30;99.90;;;;;;5011693;28;20032;-80
2021/10/28 01:56:03;;;;;;;23.42;14.05;;;13.30;99.90;;;;;;5012311;28;20026;-79
2021/10/28 01:58:29;;;;;;;22.58;13.15;;;13.30;99.90;;;;;;5012043;28;20046;-79
2021/10/28 02:00:55;;;;;;;27.73;14.43;;;13.30;99.90;;;;;;5012165;28;20450;-80
2021/10/28 02:03:20;;;;;;;28.83;14.35;;;13.30;99.90;;;;;;5022720;28;20506;-77
2021/10/28 02:05:48;;;;;;;21.08;13.10;;;13.30;99.90;;;;;;5012619;28;20056;-77
2021/10/28 02:08:13;;;;;;;20.48;13.13;;;13.30;99.90;;;;;;5012238;28;20500;-79
2021/10/28 02:10:40;;;;;;;20.85;13.70;;;13.30;99.90;;;;;;5012293;28;20173;-81
2021/10/28 02:13:06;;;;;;;20.80;12.80;;;13.30;99.90;;;;;;5012222;28;20148;-76
2021/10/28 02:15:31;;;;;;;21.08;13.90;;;13.20;99.90;;;;;;5012436;28;20526;-79
2021/10/28 02:17:57;;;;;;;21.67;14.35;;;13.20;99.90;;;;;;5018339;28;20038;-80
2021/10/28 02:20:23;;;;;;;20.92;14.25;;;13.20;99.90;;;;;;5011739;28;20046;-79
2021/10/28 02:22:49;;;;;;;18.80;13.57;;;13.20;99.90;;;;;;5012066;28;20065;-79
2021/10/28 02:25:15;;;;;;;25.70;13.85;;;13.20;99.90;;;;;;5010731;28;20136;-80
2021/10/28 02:27:41;;;;;;;22.65;13.88;;;13.20;99.90;;;;;;5010174;28;20430;-80
2021/10/28 02:30:09;;;;;;;26.40;14.52;;;13.20;99.90;;;;;;4992712;28;20034;-81
2021/10/28 02:32:35;;;;;;;26.20;14.00;;;13.20;99.90;;;;;;4992139;28;20022;-80
2021/10/28 02:35:01;;;;;;;26.48;13.20;;;13.20;99.90;;;;;;5009577;28;20038;-79
2021/10/28 02:37:28;;;;;;;20.90;14.05;;;13.20;99.90;;;;;;5010023;28;20030;-81
2021/10/28 02:39:54;;;;;;;28.83;13.40;;;13.20;99.90;;;;;;5011010;28;20034;-79
2021/10/28 02:42:20;;;;;;;24.80;13.68;;;13.20;99.90;;;;;;5015363;28;20038;-80
2021/10/28 02:44:45;;;;;;;21.33;13.40;;;13.20;99.90;;;;;;5015643;28;20041;-79
2021/10/28 02:47:12;;;;;;;21.08;13.00;;;13.20;99.90;;;;;;5015979;28;20084;-80
2021/10/28 02:49:38;;;;;;;16.25;11.23;;;13.20;99.90;;;;;;5014799;28;20089;-79
2021/10/28 02:52:04;;;;;;;22.73;12.55;;;13.20;99.90;;;;;;5014414;28;20034;-80
2021/10/28 02:54:30;;;;;;;20.30;11.77;;;13.20;99.90;;;;;;5012796;28;20026;-80
2021/10/28 02:56:56;;;;;;;21.40;12.55;;;13.20;99.90;;;;;;5013596;28;20038;-79
2021/10/28 02:59:22;;;;;;;20.25;12.82;;;13.20;99.90;;;;;;5013336;28;20347;-79
2021/10/28 03:01:50;;;;;;;20.27;12.43;;;13.10;99.90;;;;;;5013651;28;20168;-81
2021/10/28 03:04:18;;;;;;;17.55;11.55;;;13.10;99.90;;;;;;5013569;28;20099;-78
2021/10/28 03:06:45;;;;;;;20.35;12.23;;;13.20;99.90;;;;;;5026950;28;20018;-80
2021/10/28 03:09:13;;;;;;;18.27;11.32;;;13.20;99.90;;;;;;5014854;28;20038;-79
2021/10/28 03:11:41;;;;;;;18.77;10.90;;;13.20;99.90;;;;;;5015035;28;20101;-80
2021/10/28 03:14:10;;;;;;;29.70;12.60;;;13.20;99.90;;;;;;5014787;28;20040;-79
2021/10/28 03:27:15;;;;;;;16.98;11.57;;;13.20;99.90;;;;;;5017656;28;20052;-81
2021/10/28 03:29:41;;;;;;;18.50;11.75;;;13.20;99.90;;;;;;5015023;28;20042;-81
2021/10/28 03:32:07;;;;;;;17.48;10.43;;;13.10;99.90;;;;;;5014463;28;20031;-80
2021/10/28 03:34:33;;;;;;;16.95;10.68;;;13.10;99.90;;;;;;5014617;28;20029;-78
2021/10/28 03:37:03;;;;;;;20.38;10.68;;;13.10;99.90;;;;;;5014372;28;20044;-79
2021/10/28 04:31:28;;;;;;;15.00;10.27;;;13.00;99.90;;;;;;5014073;28;20080;-81
2021/10/28 04:33:55;;;;;;;17.25;10.80;;;13.10;99.90;;;;;;5022195;28;20068;-76
2021/10/28 04:36:23;;;;;;;17.80;11.23;;;13.10;99.90;;;;;;5016994;28;20038;-81
2021/10/28 04:38:51;;;;;;;19.90;11.35;;;13.10;99.90;;;;;;5013551;28;20406;-80
2021/10/28 04:41:16;;;;;;;15.85;11.25;;;13.20;99.90;;;;;;5013340;28;20098;-80
2021/10/28 04:43:42;;;;;;;16.05;11.35;;;13.20;99.90;;;;;;5013511;28;20046;-79
2021/10/28 04:46:07;;;;;;;21.13;11.65;;;13.20;99.90;;;;;;5013588;28;20033;-77
2021/10/28 04:48:33;;;;;;;22.05;11.90;;;13.20;99.90;;;;;;5013371;28;20029;-76
2021/10/28 04:50:59;;;;;;;18.95;10.63;;;13.20;99.90;;;;;;5017220;28;20029;-80
2021/10/28 04:53:27;;;;;;;19.48;11.00;;;13.10;99.90;;;;;;5001395;28;20517;-78
2021/10/28 04:55:53;;;;;;;23.42;11.20;;;13.20;99.90;;;;;;5011597;28;20125;-81
2021/10/28 04:58:19;;;;;;;23.25;10.30;;;13.10;99.90;;;;;;5012125;28;20096;-80
2021/10/28 05:00:44;;;;;;;23.60;10.50;;;13.00;99.90;;;;;;5019755;28;20038;-80
2021/10/28 05:03:10;;;;;;;19.27;11.68;;;13.00;99.90;;;;;;5012970;28;20113;-79
2021/10/28 05:05:36;;;;;;;22.17;11.13;;;13.00;99.90;;;;;;5013043;28;20026;-78
2021/10/28 05:08:01;;;;;;;21.45;12.07;;;13.00;99.90;;;;;;5014537;28;21846;-81
2021/10/28 05:10:30;;;;;;;23.58;10.93;;;13.00;99.90;;;;;;5013404;28;20038;-78
2021/10/28 05:12:56;;;;;;;17.30;11.25;;;13.00;99.90;;;;;;5012584;28;20121;-75
2021/10/28 05:15:21;;;;;;;16.92;11.13;;;13.00;99.90;;;;;;5012700;28;20461;-76
2021/10/28 05:17:47;;;;;;;23.88;12.63;;;13.00;99.90;;;;;;5012288;28;20037;-75
2021/10/28 05:20:13;;;;;;;24.48;12.13;;;13.00;99.90;;;;;;5012361;28;20042;-80
2021/10/28 05:22:39;;;;;;;18.20;11.73;;;13.00;99.90;;;;;;5013008;28;20137;-80
2021/10/28 05:25:05;;;;;;;22.45;12.55;;;13.00;99.90;;;;;;4995357;28;20465;-80
2021/10/28 05:27:31;;;;;;;28.35;12.10;;;13.00;99.90;;;;;;5013855;28;20474;-81
2021/10/28 05:29:56;;;;;;;21.73;11.93;;;13.00;99.90;;;;;;5012879;28;20045;-80
2021/10/28 05:32:22;;;;;;;21.60;12.68;;;13.10;99.90;;;;;;5012793;28;20018;-78
2021/10/28 05:34:48;;;;;;;16.92;11.15;;;13.10;99.90;;;;;;5012898;28;20026;-79
2021/10/28 05:37:15;;;;;;;18.95;11.50;;;13.10;99.90;;;;;;5012364;28;20129;-76
2021/10/28 05:39:41;;;;;;;19.92;11.90;;;13.10;99.90;;;;;;5019926;28;20033;-78
2021/10/28 05:42:07;;;;;;;26.13;12.82;;;13.10;99.90;;;;;;5012140;28;20030;-80
2021/10/28 05:44:32;;;;;;;21.67;13.02;;;13.10;99.90;;;;;;5011467;28;20042;-77
2021/10/28 05:46:58;;;;;;;21.80;12.10;;;13.00;99.90;;;;;;5012716;28;20029;-80
2021/10/28 05:49:27;;;;;;;24.25;12.60;;;13.00;99.90;;;;;;5013566;28;20038;-81
2021/10/28 05:51:53;;;;;;;35.40;12.15;;;13.00;99.90;;;;;;5011977;28;20042;-76
2021/10/28 05:54:18;;;;;;;26.33;12.13;;;13.00;99.90;;;;;;5012350;28;20089;-78
2021/10/28 05:56:44;;;;;;;29.17;12.77;;;13.00;99.90;;;;;;5012725;28;20029;-77
2021/10/28 05:59:10;;;;;;;22.40;11.68;;;13.00;99.90;;;;;;5012700;28;20040;-80
2021/10/28 06:01:35;;;;;;;20.55;11.82;;;13.00;99.90;;;;;;5012982;28;20105;-78
2021/10/28 06:04:01;;;;;;;24.58;12.23;;;13.10;99.90;;;;;;5011787;28;20482;-80
2021/10/28 06:06:27;;;;;;;20.88;11.75;;;13.10;99.90;;;;;;5012592;28;20022;-77
2021/10/28 06:08:52;;;;;;;20.85;12.57;;;13.30;99.90;;;;;;5012324;28;20040;-74
2021/10/28 06:11:19;;;;;;;21.83;11.88;;;13.70;99.90;;;;;;5011922;28;20076;-77
2021/10/28 06:13:47;;;;;;;21.55;11.65;;;14.00;99.90;;;;;;5012748;28;20471;-74
2021/10/28 06:16:13;;;;;;;18.77;11.55;;;14.50;99.90;;;;;;5018434;28;20045;-77
2021/10/28 06:18:41;;;;;;;29.25;12.90;;;15.00;99.90;;;;;;5019929;28;20041;-77
2021/10/28 06:21:09;;;;;;;18.98;10.40;;;15.20;99.90;;;;;;5015927;28;20030;-74
2021/10/28 06:23:35;;;;;;;18.17;10.93;;;15.50;99.60;;;;;;5026837;28;20057;-78
2021/10/28 06:26:02;;;;;;;17.98;10.10;;;16.00;98.90;;;;;;5028615;28;20116;-76
2021/10/28 06:28:27;;;;;;;21.42;10.30;;;16.40;98.50;;;;;;5022644;28;20514;-77
2021/10/28 06:30:53;;;;;;;16.05;9.80;;;16.70;97.80;;;;;;5025626;28;20088;-77
2021/10/28 06:33:21;;;;;;;14.93;10.20;;;16.90;97.30;;;;;;5021035;28;20471;-78
2021/10/28 06:35:47;;;;;;;17.05;9.80;;;17.10;97.00;;;;;;5018874;28;20042;-77
2021/10/28 06:38:14;;;;;;;17.48;9.68;;;17.40;96.70;;;;;;5031893;28;20061;-76
2021/10/28 06:40:40;;;;;;;25.98;8.30;;;17.80;96.30;;;;;;5030028;28;20529;-78
2021/10/28 06:43:07;;;;;;;21.92;9.50;;;18.20;95.60;;;;;;5024742;28;20044;-78
2021/10/28 06:45:33;;;;;;;17.13;8.88;;;18.70;95.10;;;;;;5029890;28;20029;-77
2021/10/28 06:47:59;;;;;;;18.33;9.73;;;19.30;94.30;;;;;;5015819;28;20390;-77
2021/10/28 06:50:33;;;;;;;16.48;8.60;;;20.00;93.30;;;;;;5031781;28;20040;-77
2021/10/28 06:53:11;;;;;;;20.45;8.63;;;20.40;92.60;;;;;;5022506;28;20041;-75
2021/10/28 07:03:27;;;;;;;22.95;9.18;;;20.10;91.90;;;;;;5009990;28;20056;-78
2021/10/28 07:06:02;;;;;;;17.15;9.63;;;20.20;92.10;;;;;;4997875;28;20062;-75
2021/10/28 07:08:28;;;;;;;15.27;8.75;;;20.30;92.10;;;;;;5009980;28;20030;-78
2021/10/28 07:10:56;;;;;;;16.05;9.23;;;20.40;91.70;;;;;;5019080;28;20489;-77
2021/10/28 07:13:28;;;;;;;25.95;9.73;;;20.20;92.00;;;;;;5015868;28;20030;-76
2021/10/28 07:16:12;;;;;;;16.55;9.13;;;19.90;92.00;;;;;;5015113;28;20033;-76
2021/10/28 07:19:38;;;;;;;28.30;9.38;;;19.80;92.20;;;;;;4997748;28;20045;-78
2021/10/28 07:26:48;;;;;;;15.07;8.18;;;19.90;91.90;;;;;;5014549;28;20045;-75
2021/10/28 07:54:55;;;;;;;11.77;8.30;;;20.00;91.50;;;;;;5014327;28;20058;-78
2021/10/28 08:23:36;;;;;;;21.58;8.05;;;21.60;90.30;;;;;;5015724;28;20176;-76
2021/10/28 08:28:55;;;;;;;13.57;7.93;;;23.80;85.60;;;;;;5014054;28;20073;-76
2021/10/28 08:31:21;;;;;;;9.82;6.50;;;24.60;82.80;;;;;;5013781;28;20034;-75
2021/10/28 08:33:49;;;;;;;11.52;6.85;;;25.10;80.40;;;;;;4996039;28;20050;-75
2021/10/28 08:36:23;;;;;;;13.15;7.40;;;25.40;80.30;;;;;;5014350;28;20022;-76
2021/10/28 08:38:49;;;;;;;24.90;6.88;;;26.30;78.70;;;;;;5013291;28;20471;-76
2021/10/28 08:41:18;;;;;;;12.88;6.90;;;26.90;75.50;;;;;;5013543;28;20089;-76
2021/10/28 08:43:45;;;;;;;19.25;6.65;;;27.10;74.50;;;;;;5013018;28;20141;-77
2021/10/28 08:46:12;;;;;;;14.43;6.25;;;27.60;74.40;;;;;;5013380;28;20034;-79
2021/10/28 08:48:47;;;;;;;12.65;6.70;;;27.80;73.40;;;;;;5014285;28;20274;-74
2021/10/28 08:51:21;;;;;;;13.02;6.60;;;28.50;72.00;;;;;;5011614;28;20040;-79
2021/10/28 08:56:55;;;;;;;11.23;6.40;;;28.10;69.80;;;;;;5016491;28;20034;-80
2021/10/28 09:24:47;;;;;;;25.60;6.90;;;31.00;63.00;;;;;;5013637;28;20056;-76
2021/10/28 09:27:21;;;;;;;;;;;31.50;61.40;;;;;;5016531;28;20087;-76
2021/10/28 09:30:10;;;;;;;25.48;7.40;;;31.60;62.10;;;;;;5017192;28;19959;-77
2021/10/28 09:32:46;;;;;;;14.70;5.68;;;31.60;60.00;;;;;;5022197;28;20449;-79
2021/10/28 09:46:51;;;;;;;18.15;6.07;;;33.20;59.60;;;;;;5025168;28;20030;-79
2021/10/28 09:51:59;;;;;;;18.23;6.10;;;33.80;57.60;;;;;;5019616;28;20045;-78
2021/10/28 09:55:01;;;;;;;47.33;8.10;;;33.90;57.30;;;;;;5026371;28;20041;-79
2021/10/28 10:00:12;;;;;;;11.48;6.10;;;33.20;56.30;;;;;;5025890;28;20108;-77
2021/10/28 10:02:41;;;;;;;11.05;5.85;;;32.50;56.50;;;;;;5020990;28;20108;-78
2021/10/28 10:05:15;;;;;;;12.60;5.22;;;32.40;56.60;;;;;;5024857;28;20398;-72
2021/10/28 10:07:42;;;;;;;8.60;5.18;;;32.40;56.10;;;;;;5025595;28;20029;-79
2021/10/28 10:10:08;;;;;;;14.68;5.13;;;32.20;55.70;;;;;;5020731;28;20082;-76
2021/10/28 10:12:36;;;;;;;9.38;4.97;;;31.80;57.10;;;;;;5027886;28;20026;-78
2021/10/28 10:15:03;;;;;;;12.40;5.90;;;31.80;56.00;;;;;;5017104;28;20033;-78
2021/10/28 10:17:30;;;;;;;12.73;5.82;;;31.20;56.90;;;;;;5020536;28;20475;-79
2021/10/28 10:19:57;;;;;;;9.25;6.22;;;31.00;57.60;;;;;;5024519;28;20497;-78
2021/10/28 10:25:37;;;;;;;10.32;6.13;;;30.00;58.60;;;;;;5022357;28;20397;-78
2021/10/28 12:44:56;;;;;;;11.85;6.47;;;19.80;95.90;;;;;;5018531;28;20123;-81
2021/10/28 12:48:36;;;;;;;12.48;7.00;;;19.80;95.80;;;;;;5026255;28;20033;-75
2021/10/28 13:02:36;;;;;;;11.07;5.90;;;19.50;96.50;;;;;;5024589;28;20037;-75
2021/10/28 13:48:59;;;;;;;10.65;6.93;;;18.80;97.10;;;;;;5014498;28;20401;-73
2021/10/28 13:51:44;;;;;;;10.43;6.32;;;18.70;97.40;;;;;;5012293;28;20470;-76
2021/10/28 14:26:59;;;;;;;13.82;6.35;;;18.20;98.20;;;;;;5013942;28;20555;-76
2021/10/28 15:28:34;;;;;;;14.20;7.38;;;17.20;99.90;;;;;;5030045;28;20044;-77
2021/10/28 15:36:53;;;;;;;13.20;7.10;;;17.10;99.90;;;;;;5025554;28;20029;-81
2021/10/28 15:39:28;;;;;;;11.88;6.82;;;17.00;99.90;;;;;;4999625;28;20041;-77
2021/10/28 15:42:38;;;;;;;16.13;8.98;;;17.00;99.90;;;;;;5030388;28;20033;-73
2021/10/28 15:55:29;;;;;;;16.77;12.43;;;16.60;99.00;;;;;;5023408;28;20372;-78
2021/10/28 16:21:56;;;;;;;24.02;14.57;;;16.20;99.90;;;;;;5022564;28;20099;-75
2021/10/28 16:24:28;;;;;;;75.55;47.25;;;16.10;99.90;;;;;;5024723;28;20049;-74
2021/10/28 16:26:54;;;;;;;29.70;18.60;;;16.10;99.90;;;;;;5026825;28;20148;-76
2021/10/28 16:29:21;;;;;;;47.90;22.67;;;16.00;99.90;;;;;;5023901;28;20038;-78
2021/10/28 16:31:47;;;;;;;74.00;50.30;;;16.00;99.90;;;;;;5024018;28;20026;-74
2021/10/28 16:34:15;;;;;;;46.22;26.10;;;15.90;99.90;;;;;;5025330;28;20045;-79
2021/10/28 16:36:41;;;;;;;59.40;30.98;;;15.80;99.90;;;;;;5023878;28;20034;-79
2021/10/28 16:39:11;;;;;;;20.65;12.38;;;15.80;99.90;;;;;;5002637;28;20049;-78
2021/10/28 16:41:39;;;;;;;41.28;27.92;;;15.70;99.90;;;;;;5012030;28;20104;-77
2021/10/28 16:44:05;;;;;;;40.90;15.20;;;15.70;99.90;;;;;;5011468;28;20112;-78
2021/10/28 16:46:31;;;;;;;25.52;14.32;;;15.70;99.90;;;;;;5014822;28;21018;-81
2021/10/28 16:48:57;;;;;;;27.27;16.65;;;15.60;99.90;;;;;;5011743;28;20034;-74
2021/10/28 16:51:23;;;;;;;28.05;15.93;;;15.60;99.90;;;;;;5025716;28;20042;-78
2021/10/28 16:53:49;;;;;;;38.15;19.10;;;15.70;99.90;;;;;;5027515;28;20084;-75
2021/10/28 16:56:15;;;;;;;38.22;17.23;;;15.60;99.90;;;;;;5020940;28;20038;-77
2021/10/28 16:58:41;;;;;;;31.08;18.23;;;15.50;99.90;;;;;;5016238;28;20034;-77
2021/10/28 17:01:08;;;;;;;31.10;17.27;;;15.50;99.90;;;;;;4998528;28;20033;-75
2021/10/28 17:03:35;;;;;;;54.28;29.20;;;15.50;99.90;;;;;;5018137;28;20042;-78
2021/10/28 17:06:01;;;;;;;52.55;32.97;;;15.40;99.90;;;;;;5022879;28;20027;-78
2021/10/28 17:08:28;;;;;;;31.27;21.05;;;15.40;99.90;;;;;;5020389;28;20044;-74
2021/10/28 17:10:55;;;;;;;53.00;32.20;;;15.40;99.90;;;;;;5013242;28;20165;-74
2021/10/28 17:13:21;;;;;;;31.45;20.30;;;15.40;99.90;;;;;;5010745;28;20022;-73
2021/10/28 17:15:47;;;;;;;31.83;18.80;;;15.30;99.90;;;;;;5011547;28;20498;-76
2021/10/28 17:18:13;;;;;;;49.25;30.50;;;15.30;99.90;;;;;;5012032;28;20069;-75
2021/10/28 17:20:38;;;;;;;56.97;30.13;;;15.30;99.90;;;;;;5011520;28;20042;-74
2021/10/28 17:23:06;;;;;;;32.15;20.55;;;15.20;99.90;;;;;;4995299;28;20037;-73
2021/10/28 17:25:38;;;;;;;32.92;20.85;;;15.20;99.90;;;;;;5011240;28;20475;-73
2021/10/28 17:28:03;;;;;;;38.08;21.40;;;15.10;99.90;;;;;;5011987;28;20113;-73
2021/10/28 17:30:29;;;;;;;35.28;20.35;;;15.10;99.90;;;;;;5011470;28;20065;-77
2021/10/28 17:32:55;;;;;;;36.85;23.23;;;15.10;99.90;;;;;;5004222;28;20089;-78
2021/10/28 17:35:21;;;;;;;50.42;32.40;;;15.10;99.90;;;;;;5018021;28;20030;-74
2021/10/28 17:37:47;;;;;;;33.90;20.90;;;15.10;99.90;;;;;;5017054;28;20034;-74
2021/10/28 17:40:12;;;;;;;40.15;21.13;;;15.00;99.90;;;;;;4992955;28;20061;-75
2021/10/28 17:42:41;;;;;;;31.80;21.13;;;15.00;99.90;;;;;;5011960;28;20038;-76
2021/10/28 17:45:11;;;;;;;40.10;27.83;;;15.00;99.90;;;;;;5011230;28;20117;-75
2021/10/28 17:47:37;;;;;;;32.25;20.83;;;15.00;99.90;;;;;;5011431;28;20051;-76
2021/10/28 17:50:04;;;;;;;31.75;20.08;;;14.90;99.90;;;;;;5010726;28;20034;-76
2021/10/28 17:52:30;;;;;;;35.28;20.85;;;14.90;99.90;;;;;;5016498;28;20041;-77
2021/10/28 17:54:56;;;;;;;31.70;20.95;;;14.90;99.90;;;;;;5011537;28;20416;-76
2021/10/28 17:57:22;;;;;;;38.08;23.60;;;14.90;99.90;;;;;;5012387;28;20110;-74
2021/10/28 17:59:48;;;;;;;35.25;24.20;;;14.80;99.90;;;;;;5011166;28;20470;-74
2021/10/28 18:02:14;;;;;;;36.60;22.55;;;14.90;99.90;;;;;;5011298;28;20093;-77
2021/10/28 18:04:41;;;;;;;37.60;20.73;;;14.90;99.90;;;;;;5018001;28;20055;-78
2021/10/28 18:07:07;;;;;;;35.53;22.17;;;14.90;99.90;;;;;;5012582;28;20552;-75
2021/10/28 18:09:33;;;;;;;31.88;19.80;;;14.80;99.90;;;;;;5012313;28;20041;-77
2021/10/28 18:11:59;;;;;;;31.38;19.65;;;14.80;99.90;;;;;;5022750;28;20038;-77
2021/10/28 18:14:28;;;;;;;31.17;19.50;;;14.80;99.90;;;;;;5015650;28;20041;-76
2021/10/28 18:16:55;;;;;;;29.60;19.17;;;14.80;99.90;;;;;;5023324;28;20035;-74
2021/10/28 18:19:21;;;;;;;28.13;19.65;;;14.90;99.90;;;;;;5018669;28;20068;-76
2021/10/28 18:21:52;;;;;;;32.00;20.27;;;14.80;99.90;;;;;;5024121;28;20029;-76
2021/10/28 18:24:18;;;;;;;33.83;20.80;;;14.80;99.90;;;;;;5026637;28;20056;-77
2021/10/28 18:26:44;;;;;;;30.52;20.30;;;14.80;99.90;;;;;;5015079;28;20109;-74
2021/10/28 18:29:10;;;;;;;29.88;19.65;;;14.80;99.90;;;;;;5018494;28;20037;-74
2021/10/28 18:31:35;;;;;;;28.10;20.45;;;14.70;99.90;;;;;;5014645;28;20041;-75
2021/10/28 18:34:02;;;;;;;27.95;19.67;;;14.70;99.90;;;;;;5019975;28;21230;-74
2021/10/28 18:36:31;;;;;;;30.40;19.63;;;14.70;99.90;;;;;;5000839;28;20100;-78
2021/10/28 18:38:57;;;;;;;34.47;20.10;;;14.70;99.90;;;;;;5015070;28;20545;-76
2021/10/28 18:41:23;;;;;;;32.15;21.10;;;14.70;99.90;;;;;;5018430;28;20034;-75
2021/10/28 18:43:49;;;;;;;39.78;25.83;;;14.70;99.90;;;;;;5015166;28;20380;-75
2021/10/28 18:46:21;;;;;;;31.52;21.17;;;14.60;99.90;;;;;;5017811;28;20026;-74
2021/10/28 18:48:54;;;;;;;;;;;14.60;99.90;;;;;;5015881;28;20047;-76
2021/10/28 18:51:21;;;;;;;30.67;21.02;;;14.60;99.90;;;;;;5010660;28;19916;-75
2021/10/28 18:53:48;;;;;;;32.92;20.42;;;14.60;99.90;;;;;;4998479;28;20037;-76
2021/10/28 18:56:14;;;;;;;33.95;20.58;;;14.50;99.90;;;;;;5019924;28;20037;-74
2021/10/28 18:58:42;;;;;;;31.73;20.45;;;14.50;99.90;;;;;;5025945;28;20467;-75
2021/10/28 19:01:09;;;;;;;30.20;20.02;;;14.40;99.90;;;;;;5020348;28;20057;-75
2021/10/28 19:03:36;;;;;;;34.70;20.83;;;14.50;99.90;;;;;;5019644;28;20038;-76
2021/10/28 19:06:02;;;;;;;27.80;19.88;;;14.50;99.90;;;;;;5016262;28;20030;-77
2021/10/28 19:08:28;;;;;;;33.55;20.27;;;14.50;99.90;;;;;;5026621;28;20091;-73
2021/10/28 19:10:54;;;;;;;27.48;19.55;;;14.40;99.90;;;;;;5014013;28;20026;-76
2021/10/28 19:13:20;;;;;;;29.35;20.27;;;14.50;99.90;;;;;;4999765;28;20038;-74
2021/10/28 19:15:46;;;;;;;28.05;19.70;;;14.40;99.90;;;;;;5024311;28;20385;-74
2021/10/28 19:18:12;;;;;;;35.22;20.27;;;14.40;99.90;;;;;;5019702;28;20029;-74
2021/10/28 19:20:38;;;;;;;31.20;18.65;;;14.50;99.90;;;;;;5010073;28;20480;-75
2021/10/28 19:23:06;;;;;;;31.30;19.55;;;14.50;99.90;;;;;;5015136;28;20036;-74
2021/10/28 19:25:32;;;;;;;33.03;20.52;;;14.40;99.90;;;;;;5019323;28;20514;-76
2021/10/28 19:27:58;;;;;;;30.13;19.70;;;14.40;99.90;;;;;;5025775;28;20032;-74
2021/10/28 19:30:33;;;;;;;29.58;18.90;;;14.40;99.90;;;;;;5027330;28;20360;-75
2021/10/28 19:33:10;;;;;;;33.65;19.30;;;14.40;99.90;;;;;;5008968;28;20415;-74
2021/10/28 19:35:39;;;;;;;30.02;20.40;;;14.40;99.90;;;;;;5011386;28;20542;-76
2021/10/28 19:48:18;;;;;;;24.90;17.60;;;14.30;99.90;;;;;;5021866;28;20034;-74
2021/10/28 19:50:48;;;;;;;30.90;18.50;;;14.30;99.90;;;;;;5022261;28;20034;-74
2021/10/28 19:53:14;;;;;;;28.13;18.90;;;14.40;99.90;;;;;;5013985;28;20030;-73
2021/10/28 19:55:41;;;;;;;37.38;18.85;;;14.40;99.90;;;;;;5012604;28;20088;-74
2021/10/28 19:58:12;;;;;;;28.98;18.17;;;14.30;99.90;;;;;;5010749;28;20029;-73
2021/10/28 20:00:45;;;;;;;29.85;19.65;;;14.40;99.90;;;;;;5013366;28;20037;-74
2021/10/28 20:06:02;;;;;;;31.25;19.83;;;14.40;99.90;;;;;;5013467;28;20030;-73
2021/10/28 20:22:26;;;;;;;29.75;18.98;;;14.20;99.90;;;;;;5024452;28;20149;-74
2021/10/28 20:24:52;;;;;;;29.98;19.02;;;14.20;99.90;;;;;;5012940;28;20117;-74
2021/10/28 20:27:17;;;;;;;30.60;18.98;;;14.20;99.90;;;;;;5013778;28;20109;-75
2021/10/28 20:29:43;;;;;;;34.15;19.63;;;14.10;99.90;;;;;;5012932;28;20045;-74
2021/10/28 20:32:09;;;;;;;27.15;19.55;;;14.20;99.80;;;;;;5012854;28;20038;-74
2021/10/28 20:34:47;;;;;;;34.03;19.15;;;14.10;99.80;;;;;;4994426;28;20069;-74
2021/10/28 20:37:13;;;;;;;28.02;19.88;;;14.20;99.70;;;;;;5013178;28;20116;-74
2021/10/28 20:39:42;;;;;;;30.42;20.13;;;14.20;99.70;;;;;;4995014;28;20042;-74
2021/10/28 20:42:09;;;;;;;27.98;17.88;;;14.10;99.80;;;;;;5012537;28;20113;-73
2021/10/28 20:44:35;;;;;;;31.63;18.77;;;14.10;99.70;;;;;;5013534;28;20048;-75
2021/10/28 20:47:01;;;;;;;29.52;20.08;;;14.10;99.60;;;;;;5002270;28;20026;-74
2021/10/28 20:49:29;;;;;;;30.92;19.85;;;14.10;99.60;;;;;;5014506;28;20057;-75
2021/10/28 20:51:56;;;;;;;32.78;20.23;;;14.00;99.70;;;;;;5022769;28;20049;-75
2021/10/28 20:54:22;;;;;;;30.67;20.95;;;14.00;99.60;;;;;;5012420;28;20367;-74
2021/10/28 20:56:52;;;;;;;32.70;19.10;;;14.00;99.70;;;;;;5013200;28;20530;-74
2021/10/28 20:59:18;;;;;;;27.35;19.48;;;13.90;99.70;;;;;;5012150;28;20041;-74
2021/10/28 21:01:46;;;;;;;30.27;19.35;;;13.90;99.70;;;;;;5012531;28;20057;-74
2021/10/28 21:04:13;;;;;;;29.10;19.05;;;13.90;99.70;;;;;;5012422;28;20046;-74
2021/10/28 21:06:39;;;;;;;31.13;20.42;;;13.90;99.70;;;;;;5012273;28;20440;-74
2021/10/28 21:09:05;;;;;;;26.73;19.40;;;13.80;99.70;;;;;;5012198;28;20038;-74
2021/10/28 21:11:35;;;;;;;30.65;20.98;;;13.80;99.70;;;;;;5011547;28;20018;-74
2021/10/28 21:14:01;;;;;;;32.78;18.70;;;13.80;99.70;;;;;;5011880;28;20076;-75
2021/10/28 21:16:26;;;;;;;27.73;19.38;;;13.80;99.70;;;;;;5012219;28;20463;-74
2021/10/28 21:18:52;;;;;;;47.97;20.08;;;13.80;99.70;;;;;;5012397;28;20037;-74
2021/10/28 21:21:18;;;;;;;34.30;21.30;;;13.80;99.70;;;;;;5018574;28;20410;-75
2021/10/28 21:23:45;;;;;;;33.80;20.70;;;13.70;99.70;;;;;;5011439;28;20041;-74
2021/10/28 21:26:11;;;;;;;25.95;19.38;;;13.70;99.70;;;;;;5002399;28;20372;-75
2021/10/28 21:28:37;;;;;;;32.00;19.63;;;13.70;99.70;;;;;;5011500;28;20382;-75
2021/10/28 21:31:04;;;;;;;29.85;19.42;;;13.70;99.80;;;;;;5011616;28;20030;-74
2021/10/28 21:33:29;;;;;;;33.00;21.15;;;13.60;99.80;;;;;;5018615;28;20025;-75
2021/10/28 21:35:56;;;;;;;26.80;20.33;;;13.60;99.70;;;;;;5011396;28;20083;-74